Time;durP1;ratioP1;P1;durP2;ratioP2;P2;SDS_P1;SDS_P2;PMS_P1;PMS_P2;Temp;Humidity;BMP_temperature;BMP_pressure;BME280_temperature;BME280_humidity;BME280_pressure;Samples;Min_cycle;Max_cycle;Signal;HPM_P1;HPM_P2
2022/01/21 00:04:36;;;;;;;7.45;6.00;;;;;;;20.39;nan;100551.50;20386877;28;102659;-66
2022/01/21 00:14:36;;;;;;;8.98;6.00;;;;;;;20.36;nan;100549.13;20383976;28;99534;-65
2022/01/21 00:34:58;;;;;;;7.75;5.45;;;;;;;20.28;nan;100565.41;20402114;28;98908;-65
2022/01/21 00:44:59;;;;;;;7.15;5.35;;;;;;;20.26;nan;100550.69;20371450;28;99428;-66
2022/01/21 00:55:00;;;;;;;6.05;4.70;;;;;;;20.23;nan;100543.06;20383704;28;99845;-65
2022/01/21 01:05:03;;;;;;;7.40;5.20;;;;;;;20.20;nan;100559.88;20359654;28;101228;-65
2022/01/21 01:35:46;;;;;;;5.38;3.83;;;;;;;20.09;nan;100550.13;20351274;28;98628;-65
2022/01/21 01:56:12;;;;;;;5.35;3.60;;;;;;;20.06;nan;100552.13;20376922;28;102021;-66
2022/01/21 02:06:12;;;;;;;6.05;3.95;;;;;;;20.03;nan;100570.72;20359407;28;99279;-65
2022/01/21 02:26:42;;;;;;;3.70;3.20;;;;;;;19.99;nan;100562.22;20329315;28;1222320;-66
2022/01/21 02:36:43;;;;;;;4.53;3.35;;;;;;;19.97;nan;100545.72;20394546;28;98525;-65
2022/01/21 02:46:47;;;;;;;3.10;2.78;;;;;;;19.96;nan;100523.00;20390721;28;100663;-66
2022/01/21 02:56:49;;;;;;;3.42;2.50;;;;;;;19.95;nan;100540.56;20393636;28;99863;-65
2022/01/21 03:06:49;;;;;;;4.75;2.60;;;;;;;19.96;nan;100555.38;20396244;28;98889;-65
2022/01/21 03:16:50;;;;;;;3.90;2.60;;;;;;;19.94;nan;100557.28;20391210;28;107431;-65
2022/01/21 03:26:50;;;;;;;3.42;2.35;;;;;;;19.94;nan;100557.28;20388015;28;103026;-66
2022/01/21 03:36:53;;;;;;;2.35;2.15;;;;;;;19.93;nan;100545.09;20388148;28;99849;-65
2022/01/21 03:46:53;;;;;;;2.87;2.27;;;;;;;19.92;nan;100559.19;20385516;28;99296;-65
2022/01/21 03:56:54;;;;;;;3.00;2.10;;;;;;;19.93;nan;100591.53;20383762;28;98731;-65
2022/01/21 04:06:55;;;;;;;4.80;2.22;;;;;;;19.91;nan;100609.19;20385584;28;99176;-65
2022/01/21 04:16:56;;;;;;;2.20;1.60;;;;;;;19.88;nan;100612.88;20379713;28;102612;-64
2022/01/21 04:26:57;;;;;;;2.05;1.60;;;;;;;19.88;nan;100625.19;20386476;28;100084;-65
2022/01/21 04:36:59;;;;;;;2.10;1.60;;;;;;;19.87;nan;100647.97;20389384;28;100166;-65
2022/01/21 04:57:19;;;;;;;1.70;1.40;;;;;;;19.87;nan;100674.25;20385371;28;100222;-65
2022/01/21 05:07:23;;;;;;;1.98;1.50;;;;;;;19.87;nan;100657.66;20379540;28;102590;-66
2022/01/21 05:17:25;;;;;;;1.90;1.58;;;;;;;19.92;nan;100652.94;20388215;28;101654;-66
2022/01/21 05:27:26;;;;;;;2.92;1.60;;;;;;;20.11;nan;100660.41;20374111;28;100930;-66
2022/01/21 05:37:26;;;;;;;6.10;1.48;;;;;;;20.29;nan;100663.56;20389675;28;97858;-66
2022/01/21 05:47:27;;;;;;;3.78;1.50;;;;;;;20.38;nan;100659.47;20403888;28;100136;-67
2022/01/21 05:57:30;;;;;;;2.33;1.27;;;;;;;20.46;nan;100691.34;20398442;28;101068;-68
2022/01/21 06:07:31;;;;;;;9.35;1.27;;;;;;;20.53;nan;100702.25;20404268;28;101320;-67
2022/01/21 06:17:32;;;;;;;12.00;1.80;;;;;;;20.52;nan;100719.00;20396502;28;100938;-69
2022/01/21 06:27:34;;;;;;;10.40;2.20;;;;;;;20.51;nan;100756.75;20394360;28;102325;-70
2022/01/21 06:37:35;;;;;;;13.27;2.37;;;;;;;20.48;nan;100781.50;20393461;28;99116;-66
2022/01/21 06:47:36;;;;;;;8.25;2.65;;;;;;;20.54;nan;100796.84;20402673;28;101256;-66
2022/01/21 06:57:39;;;;;;;5.40;2.17;;;;;;;20.59;nan;100814.97;20389455;28;100605;-67
2022/01/21 07:07:40;;;;;;;5.60;2.27;;;;;;;20.64;nan;100844.44;20385352;28;100492;-65
2022/01/21 07:17:42;;;;;;;7.22;1.80;;;;;;;20.68;nan;100859.09;20385843;28;102210;-65
2022/01/21 07:27:45;;;;;;;4.63;1.90;;;;;;;20.71;nan;100845.69;20386759;28;98184;-65
2022/01/21 07:37:45;;;;;;;6.73;1.90;;;;;;;20.74;nan;100855.22;20374588;28;99101;-65
2022/01/21 07:47:46;;;;;;;3.90;1.77;;;;;;;20.79;nan;100880.28;20380953;28;103194;-66
2022/01/21 07:57:46;;;;;;;4.10;1.52;;;;;;;20.81;nan;100876.69;20382111;28;100745;-65
2022/01/21 08:07:47;;;;;;;3.47;1.50;;;;;;;20.85;nan;100888.69;20343020;28;98769;-64
2022/01/21 08:17:48;;;;;;;6.28;1.33;;;;;;;20.89;nan;100880.47;20355608;28;102497;-65
2022/01/21 08:27:49;;;;;;;6.43;3.63;;;;;;;20.92;nan;100888.19;20378645;28;100061;-66
2022/01/21 08:37:53;;;;;;;13.05;4.57;;;;;;;20.94;nan;100907.31;20374985;28;102665;-65
2022/01/21 08:47:54;;;;;;;10.15;5.85;;;;;;;21.01;nan;100922.75;20380075;28;98777;-65
2022/01/21 08:57:56;;;;;;;9.13;6.28;;;;;;;21.09;nan;100939.69;20391282;28;98262;-66
2022/01/21 09:07:56;;;;;;;11.55;7.43;;;;;;;21.13;nan;100956.13;20392013;28;102094;-65
2022/01/21 09:18:03;;;;;;;10.32;6.55;;;;;;;21.15;nan;100954.22;20388175;28;98729;-63
2022/01/21 09:28:04;;;;;;;20.13;13.23;;;;;;;21.14;nan;100925.34;20330796;28;101261;-64
2022/01/21 09:38:04;;;;;;;15.63;10.10;;;;;;;21.18;nan;100913.66;20339351;28;103821;-64
2022/01/21 09:48:06;;;;;;;13.85;9.52;;;;;;;21.24;nan;100906.19;20315822;28;98424;-64
2022/01/21 09:58:07;;;;;;;12.97;8.80;;;;;;;21.27;nan;100919.13;20327097;28;101426;-66
2022/01/21 10:08:10;;;;;;;14.75;10.30;;;;;;;21.31;nan;100930.28;20344870;28;104119;-66
2022/01/21 10:18:12;;;;;;;;;;;;;;;21.35;nan;100929.16;20393345;28;101865;-66
2022/01/21 10:28:19;;;;;;;19.15;11.60;;;;;;;21.41;nan;100931.34;20401908;28;99940;-65
2022/01/21 10:38:24;;;;;;;19.55;12.65;;;;;;;21.43;nan;100918.94;20396602;28;101761;-66
2022/01/21 10:48:28;;;;;;;17.85;12.40;;;;;;;21.38;nan;100928.91;20397191;28;98561;-65
2022/01/21 10:58:38;;;;;;;19.13;12.32;;;;;;;21.28;nan;100920.81;20401003;28;101446;-64
2022/01/21 11:08:39;;;;;;;18.10;12.23;;;;;;;21.27;nan;100919.13;20396748;28;100136;-65
2022/01/21 11:18:56;;;;;;;21.48;13.10;;;;;;;21.32;nan;100913.53;20391875;28;99243;-65
2022/01/21 11:28:57;;;;;;;19.15;11.90;;;;;;;21.43;nan;100895.22;20395685;28;99835;-64
2022/01/21 11:38:58;;;;;;;16.95;11.43;;;;;;;21.37;nan;100897.41;20391550;28;98929;-65
2022/01/21 11:49:09;;;;;;;18.40;13.43;;;;;;;21.38;nan;100876.22;20382515;28;98415;-65
2022/01/21 12:09:58;;;;;;;18.25;12.52;;;;;;;21.38;nan;100852.53;20412116;28;102546;-64
2022/01/21 12:20:06;;;;;;;21.95;13.35;;;;;;;21.33;nan;100854.66;20384061;28;97959;-65
2022/01/21 12:30:29;;;;;;;18.92;12.35;;;;;;;21.32;nan;100852.97;20373463;28;102203;-66
2022/01/21 12:40:34;;;;;;;;;;;;;;;21.25;nan;100852.56;20334431;28;100030;-64
2022/01/21 12:50:40;;;;;;;15.55;10.27;;;;;;;21.23;nan;100853.63;20387198;28;101745;-66
2022/01/21 13:00:42;;;;;;;13.55;8.85;;;;;;;21.20;nan;100846.78;20358137;28;101003;-65
2022/01/21 13:10:42;;;;;;;11.85;7.97;;;;;;;21.17;nan;100854.06;20414483;28;103342;-65
2022/01/21 13:20:47;;;;;;;24.98;7.78;;;;;;;21.20;nan;100867.00;20379588;28;102913;-63
2022/01/21 13:30:47;;;;;;;14.77;6.60;;;;;;;21.19;nan;100875.84;20384225;28;100040;-64
2022/01/21 13:40:49;;;;;;;18.23;6.20;;;;;;;21.26;nan;100874.47;20332587;28;99296;-64
2022/01/21 13:50:50;;;;;;;16.70;6.18;;;;;;;21.31;nan;100859.16;20374260;28;99255;-65
2022/01/21 14:01:00;;;;;;;10.40;5.47;;;;;;;21.33;nan;100845.91;20377230;28;99125;-65
2022/01/21 14:11:10;;;;;;;9.55;5.32;;;;;;;21.40;nan;100826.91;20373408;28;99304;-69
2022/01/21 14:21:16;;;;;;;12.18;4.55;;;;;;;21.46;nan;100817.75;20374536;28;101349;-65
2022/01/21 14:31:39;;;;;;;7.03;4.00;;;;;;;21.49;nan;100835.13;20358843;28;100960;-65
2022/01/21 14:41:53;;;;;;;10.68;4.22;;;;;;;21.51;nan;100841.97;20364159;28;97472;-66
2022/01/21 14:52:33;;;;;;;7.13;4.00;;;;;;;21.50;nan;100842.06;20402822;28;99683;-66
2022/01/21 15:02:27;;;;;;;10.13;4.40;;;;;;;21.44;nan;100859.97;20390203;28;98760;-65
2022/01/21 15:22:48;;;;;;;21.38;4.10;;;;;;;21.25;nan;100871.00;20377923;28;98005;-66
2022/01/21 15:32:49;;;;;;;8.38;3.33;;;;;;;21.26;nan;100871.81;20397116;28;97511;-66
2022/01/21 15:42:49;;;;;;;12.77;3.78;;;;;;;21.24;nan;100852.69;20395108;28;99278;-66
2022/01/21 15:52:50;;;;;;;8.55;3.08;;;;;;;21.22;nan;100846.66;20389051;28;102390;-64
2022/01/21 16:02:51;;;;;;;13.13;3.20;;;;;;;21.20;nan;100846.78;20389927;28;105021;-67
2022/01/21 16:12:52;;;;;;;9.17;2.87;;;;;;;21.15;nan;100854.13;20394280;28;99068;-67
2022/01/21 16:22:52;;;;;;;4.45;2.70;;;;;;;21.10;nan;100867.66;20400660;28;99000;-66
2022/01/21 16:32:52;;;;;;;3.40;2.38;;;;;;;21.04;nan;100886.47;20419823;28;98497;-66
2022/01/21 16:42:53;;;;;;;4.65;2.20;;;;;;;21.00;nan;100878.91;20409311;28;99880;-65
2022/01/21 16:52:55;;;;;;;7.75;2.55;;;;;;;21.08;nan;100877.44;20388547;28;99653;-65
2022/01/21 17:02:58;;;;;;;8.23;2.70;;;;;;;21.11;nan;100885.13;20381748;28;99153;-66
2022/01/21 17:12:58;;;;;;;3.42;1.95;;;;;;;21.13;nan;100892.06;20408800;28;98897;-66
2022/01/21 17:23:00;;;;;;;5.95;1.92;;;;;;;21.32;nan;100883.75;20409258;28;101169;-66
2022/01/21 17:33:00;;;;;;;16.27;2.72;;;;;;;21.53;nan;100868.19;20416339;28;98684;-66
2022/01/21 17:43:04;;;;;;;9.98;2.22;;;;;;;21.64;nan;100857.78;20407563;28;101740;-67
2022/01/21 17:53:07;;;;;;;8.43;2.10;;;;;;;21.70;nan;100849.44;20410997;28;102191;-67
2022/01/21 18:03:08;;;;;;;16.17;2.65;;;;;;;21.77;nan;100847.16;20374097;28;101177;-65
2022/01/21 18:13:08;;;;;;;11.65;2.35;;;;;;;21.77;nan;100834.00;20385186;28;100940;-65
2022/01/21 18:23:09;;;;;;;9.20;1.92;;;;;;;21.84;nan;100835.22;20400766;28;100425;-67
2022/01/21 18:33:09;;;;;;;8.10;2.25;;;;;;;21.91;nan;100849.66;20404575;28;102863;-66
2022/01/21 18:43:26;;;;;;;100.03;27.73;;;;;;;21.97;nan;100819.38;20402076;28;99121;-67
2022/01/21 18:53:28;;;;;;;177.50;65.53;;;;;;;22.00;nan;100813.84;20412992;28;100069;-69
2022/01/21 19:03:31;;;;;;;162.33;58.43;;;;;;;21.97;nan;100806.19;20408043;28;102416;-67
2022/01/21 19:13:32;;;;;;;149.35;54.33;;;;;;;21.96;nan;100822.09;20415755;28;99217;-68
2022/01/21 19:23:34;;;;;;;128.35;48.33;;;;;;;21.95;nan;100830.94;20413057;28;102687;-67
2022/01/21 19:33:35;;;;;;;124.57;44.10;;;;;;;21.97;nan;100832.53;20417686;28;97912;-68
2022/01/21 19:43:35;;;;;;;105.13;40.47;;;;;;;21.94;nan;100850.38;20413339;28;100485;-67
2022/01/21 19:53:37;;;;;;;92.27;35.10;;;;;;;21.95;nan;100836.22;20407516;28;101153;-67
2022/01/21 20:14:09;;;;;;;63.78;24.98;;;;;;;21.79;nan;100847.06;20392353;28;99061;-67
2022/01/21 20:24:12;;;;;;;51.72;21.52;;;;;;;21.62;nan;100843.00;20347527;28;101443;-67
2022/01/21 20:34:18;;;;;;;42.28;18.17;;;;;;;21.49;nan;100843.84;20383375;28;98541;-67
2022/01/21 20:44:21;;;;;;;46.08;18.20;;;;;;;21.37;nan;100836.84;20393777;28;101932;-67
2022/01/21 20:54:23;;;;;;;41.60;17.80;;;;;;;21.30;nan;100840.84;20395252;28;101368;-66
2022/01/21 21:04:25;;;;;;;37.75;16.10;;;;;;;21.20;nan;100836.25;20383137;28;99272;-67
2022/01/21 21:14:37;;;;;;;39.58;14.90;;;;;;;21.15;nan;100842.78;20360113;28;99990;-66
2022/01/21 21:24:38;;;;;;;33.07;13.60;;;;;;;21.05;nan;100845.22;20336609;28;98353;-67
2022/01/21 22:16:40;;;;;;;22.43;10.23;;;;;;;20.68;nan;100829.28;20374717;28;98484;-67
2022/01/21 23:07:53;;;;;;;13.43;6.35;;;;;;;20.40;nan;100758.34;20365191;28;101180;-67
2022/01/21 23:17:58;;;;;;;11.70;5.82;;;;;;;20.35;nan;100791.16;20375552;28;98886;-67
2022/01/21 23:28:10;;;;;;;11.60;6.20;;;;;;;20.31;nan;100774.75;20374294;28;99642;-68
2022/01/21 23:48:12;;;;;;;9.65;4.47;;;;;;;20.21;nan;100771.88;20374006;28;102438;-67
2022/01/21 23:58:13;;;;;;;8.90;4.47;;;;;;;20.17;nan;100761.72;20367454;28;98197;-67
